Time;durP1;ratioP1;P1;durP2;ratioP2;P2;SDS_P1;SDS_P2;PMS_P1;PMS_P2;Temp;Humidity;BMP_temperature;BMP_pressure;BME280_temperature;BME280_humidity;BME280_pressure;Samples;Min_cycle;Max_cycle;Signal;HPM_P1;HPM_P2
2023/09/16 00:03:32;;;;;;;2.38;1.45;;;;;;;;;;12979998;22;20027;-84
2023/09/16 00:08:36;;;;;;;;;;;;;;;;;;12944255;22;20039;-84
2023/09/16 00:13:41;;;;;;;1.30;1.10;;;;;;;;;;12970849;22;19943;-84
2023/09/16 00:18:46;;;;;;;1.65;1.33;;;;;;;;;;12976906;22;20024;-83
2023/09/16 00:23:49;;;;;;;1.40;1.30;;;;;;;;;;12942667;22;20648;-85
2023/09/16 00:28:52;;;;;;;1.50;1.40;;;;;;;;;;12941781;22;20023;-85
2023/09/16 00:33:57;;;;;;;1.67;1.20;;;;;;;;;;12975024;22;20019;-85
2023/09/16 00:39:00;;;;;;;3.55;1.17;;;;;;;;;;12941908;22;20027;-85
2023/09/16 00:44:03;;;;;;;1.90;1.48;;;;;;;;;;12941446;22;20027;-84
2023/09/16 00:49:08;;;;;;;2.20;1.65;;;;;;;;;;12940796;22;20050;-84
2023/09/16 00:54:12;;;;;;;2.15;1.58;;;;;;;;;;12972367;22;20101;-84
2023/09/16 00:59:20;;;;;;;1.70;1.27;;;;;;;;;;12939792;22;20023;-85
2023/09/16 01:04:24;;;;;;;1.77;1.33;;;;;;;;;;12939324;22;20024;-85
2023/09/16 01:09:28;;;;;;;2.17;1.40;;;;;;;;;;12967543;22;20020;-85
2023/09/16 01:14:31;;;;;;;1.02;1.02;;;;;;;;;;12938150;22;20027;-84
2023/09/16 01:19:43;;;;;;;1.67;1.40;;;;;;;;;;12937635;22;20024;-85
2023/09/16 01:24:52;;;;;;;1.95;1.27;;;;;;;;;;12945088;22;20050;-85
2023/09/16 01:29:57;;;;;;;2.40;1.20;;;;;;;;;;12948392;22;20028;-84
2023/09/16 01:35:04;;;;;;;1.77;1.60;;;;;;;;;;12949382;22;20047;-85
2023/09/16 01:40:10;;;;;;;1.50;1.40;;;;;;;;;;12922143;22;20074;-76
2023/09/16 01:45:16;;;;;;;1.40;1.30;;;;;;;;;;12918922;22;20016;-75
2023/09/16 01:50:19;;;;;;;2.20;1.45;;;;;;;;;;13006838;22;20030;-75
2023/09/16 01:55:23;;;;;;;1.70;1.38;;;;;;;;;;12957398;22;20055;-75
2023/09/16 02:00:29;;;;;;;3.72;1.67;;;;;;;;;;12953328;22;20069;-76
2023/09/16 02:05:34;;;;;;;1.58;1.38;;;;;;;;;;12954892;22;20027;-75
2023/09/16 02:10:38;;;;;;;1.40;1.30;;;;;;;;;;12956765;22;20505;-75
2023/09/16 02:15:43;;;;;;;2.55;1.30;;;;;;;;;;12956457;22;20328;-76
2023/09/16 02:20:47;;;;;;;1.43;1.33;;;;;;;;;;13002451;22;20355;-75
2023/09/16 02:25:50;;;;;;;1.50;1.40;;;;;;;;;;12955809;22;20020;-75
2023/09/16 02:30:55;;;;;;;1.88;1.10;;;;;;;;;;12985832;22;20382;-76
2023/09/16 02:35:59;;;;;;;1.60;1.48;;;;;;;;;;12961837;22;20103;-75
2023/09/16 02:41:04;;;;;;;1.55;1.45;;;;;;;;;;13008192;22;20470;-76
2023/09/16 02:46:11;;;;;;;2.83;1.70;;;;;;;;;;12963538;22;20568;-75
2023/09/16 02:51:15;;;;;;;1.65;1.50;;;;;;;;;;13003553;22;20023;-76
2023/09/16 02:56:19;;;;;;;2.67;1.55;;;;;;;;;;12954622;22;20028;-75
2023/09/16 03:01:23;;;;;;;1.20;1.10;;;;;;;;;;12999249;22;20028;-76
2023/09/16 03:06:27;;;;;;;2.33;1.63;;;;;;;;;;12957908;22;20031;-75
2023/09/16 03:11:31;;;;;;;1.65;1.38;;;;;;;;;;12955921;22;20058;-75
2023/09/16 03:16:36;;;;;;;1.45;1.35;;;;;;;;;;12981321;22;20039;-76
2023/09/16 03:21:40;;;;;;;2.33;1.53;;;;;;;;;;12955865;22;20027;-75
2023/09/16 03:26:44;;;;;;;2.03;1.20;;;;;;;;;;13000674;22;20520;-75
2023/09/16 03:31:50;;;;;;;1.53;1.43;;;;;;;;;;12962472;22;20389;-76
2023/09/16 03:36:57;;;;;;;1.60;1.20;;;;;;;;;;12960352;22;20077;-76
2023/09/16 03:42:00;;;;;;;3.28;1.40;;;;;;;;;;12956014;22;20027;-75
2023/09/16 03:47:06;;;;;;;1.40;1.15;;;;;;;;;;12956496;22;20032;-76
2023/09/16 03:52:12;;;;;;;1.88;1.65;;;;;;;;;;12956657;22;20024;-76
2023/09/16 03:57:16;;;;;;;3.92;1.40;;;;;;;;;;12953124;22;20358;-75
2023/09/16 04:02:21;;;;;;;1.50;1.40;;;;;;;;;;12992013;22;20459;-76
2023/09/16 04:07:24;;;;;;;1.90;1.20;;;;;;;;;;12954778;22;20027;-76
2023/09/16 04:12:28;;;;;;;1.83;1.50;;;;;;;;;;12954451;22;20055;-75
2023/09/16 04:17:33;;;;;;;1.73;1.30;;;;;;;;;;12981398;22;20047;-76
2023/09/16 04:22:37;;;;;;;2.13;1.60;;;;;;;;;;12955837;22;20052;-76
2023/09/16 04:27:41;;;;;;;1.50;1.30;;;;;;;;;;12954133;22;20032;-76
2023/09/16 04:32:46;;;;;;;1.77;1.42;;;;;;;;;;12992467;22;20063;-75
2023/09/16 04:37:50;;;;;;;4.10;1.60;;;;;;;;;;12952611;22;20027;-76
2023/09/16 04:42:54;;;;;;;1.77;1.33;;;;;;;;;;12954508;22;20023;-75
2023/09/16 04:47:59;;;;;;;2.60;1.50;;;;;;;;;;12955456;22;20098;-76
2023/09/16 04:53:03;;;;;;;3.10;1.37;;;;;;;;;;12954339;22;20024;-76
2023/09/16 04:58:07;;;;;;;1.60;1.38;;;;;;;;;;12978863;22;20027;-75
2023/09/16 05:03:12;;;;;;;2.30;1.60;;;;;;;;;;12954280;22;20095;-76
2023/09/16 05:08:15;;;;;;;1.40;1.30;;;;;;;;;;12951878;22;20027;-76
2023/09/16 05:13:19;;;;;;;1.60;1.30;;;;;;;;;;12953489;22;20459;-75
2023/09/16 05:18:24;;;;;;;1.48;1.38;;;;;;;;;;12953900;22;20062;-76
2023/09/16 05:23:29;;;;;;;1.95;1.50;;;;;;;;;;12953322;22;20066;-76
2023/09/16 05:28:33;;;;;;;1.80;1.40;;;;;;;;;;12953331;22;20024;-75
2023/09/16 05:33:41;;;;;;;2.22;1.60;;;;;;;;;;12949593;22;20028;-76
2023/09/16 05:38:44;;;;;;;1.65;1.45;;;;;;;;;;12949798;22;20459;-76
2023/09/16 05:43:48;;;;;;;1.48;1.30;;;;;;;;;;12982138;22;20102;-76
2023/09/16 05:48:56;;;;;;;1.80;1.45;;;;;;;;;;12950885;22;20020;-76
2023/09/16 05:53:59;;;;;;;1.42;1.23;;;;;;;;;;12977056;22;20038;-76
2023/09/16 05:59:03;;;;;;;1.85;1.17;;;;;;;;;;12949888;22;20020;-76
2023/09/16 06:04:09;;;;;;;1.55;1.13;;;;;;;;;;12982635;22;20518;-76
2023/09/16 06:09:12;;;;;;;1.15;1.05;;;;;;;;;;12952111;22;20083;-76
2023/09/16 06:14:16;;;;;;;2.75;1.17;;;;;;;;;;12953066;22;20498;-76
2023/09/16 06:19:22;;;;;;;2.10;1.20;;;;;;;;;;12954551;22;20020;-75
2023/09/16 06:24:26;;;;;;;1.88;1.15;;;;;;;;;;12954395;22;20382;-76
2023/09/16 06:29:29;;;;;;;1.33;1.05;;;;;;;;;;12985168;22;20034;-76
2023/09/16 06:34:34;;;;;;;1.30;1.02;;;;;;;;;;12955354;22;20031;-76
2023/09/16 06:39:40;;;;;;;1.25;1.13;;;;;;;;;;12953797;22;20020;-76
2023/09/16 06:44:43;;;;;;;1.85;1.42;;;;;;;;;;12955094;22;20027;-76
2023/09/16 06:49:48;;;;;;;1.70;1.30;;;;;;;;;;12983893;22;20079;-76
2023/09/16 06:54:51;;;;;;;1.63;1.35;;;;;;;;;;12962550;22;20027;-76
2023/09/16 06:59:55;;;;;;;1.67;1.40;;;;;;;;;;12947680;22;20016;-76
2023/09/16 07:05:01;;;;;;;1.40;1.15;;;;;;;;;;12978205;22;20062;-76
2023/09/16 07:10:06;;;;;;;1.40;1.30;;;;;;;;;;12945325;22;20082;-77
2023/09/16 07:15:10;;;;;;;1.73;1.40;;;;;;;;;;12979579;22;20028;-77
2023/09/16 07:20:15;;;;;;;1.05;0.90;;;;;;;;;;12946026;22;20016;-76
2023/09/16 07:25:19;;;;;;;1.58;1.27;;;;;;;;;;12976000;22;20024;-77
2023/09/16 07:30:22;;;;;;;1.70;1.40;;;;;;;;;;12974873;22;20099;-77
2023/09/16 07:35:27;;;;;;;3.70;2.03;;;;;;;;;;12968537;22;20027;-77
2023/09/16 07:40:32;;;;;;;2.20;1.90;;;;;;;;;;12942443;22;20012;-85
2023/09/16 07:45:35;;;;;;;2.03;1.83;;;;;;;;;;12896031;23;20432;-85
2023/09/16 07:50:40;;;;;;;1.95;1.50;;;;;;;;;;12901428;23;20016;-88
2023/09/16 07:55:43;;;;;;;2.33;1.58;;;;;;;;;;12902010;23;20050;-85
2023/09/16 08:00:47;;;;;;;2.33;1.45;;;;;;;;;;12900893;23;20592;-84
2023/09/16 08:05:53;;;;;;;1.17;1.08;;;;;;;;;;12887837;23;20066;-86
2023/09/16 08:10:56;;;;;;;1.75;1.48;;;;;;;;;;12891988;23;20024;-84
2023/09/16 08:16:00;;;;;;;2.00;1.42;;;;;;;;;;12887921;23;20472;-85
2023/09/16 08:21:05;;;;;;;2.33;1.88;;;;;;;;;;12874522;23;20175;-85
2023/09/16 08:26:08;;;;;;;2.42;2.00;;;;;;;;;;12889790;23;20016;-84
2023/09/16 08:31:11;;;;;;;1.92;1.77;;;;;;;;;;12893373;23;20057;-84
2023/09/16 08:36:16;;;;;;;2.22;1.90;;;;;;;;;;12918615;23;20027;-84
2023/09/16 08:41:27;;;;;;;2.30;2.10;;;;;;;;;;12932818;22;20503;-84
2023/09/16 08:46:34;;;;;;;1.88;1.70;;;;;;;;;;12964119;22;20024;-85
2023/09/16 08:51:42;;;;;;;2.30;1.60;;;;;;;;;;12966940;22;20019;-84
2023/09/16 08:56:46;;;;;;;1.50;1.40;;;;;;;;;;12979571;22;20051;-84
2023/09/16 09:01:50;;;;;;;1.80;1.70;;;;;;;;;;12964998;22;20048;-85
2023/09/16 09:06:55;;;;;;;1.98;1.38;;;;;;;;;;12962837;22;20077;-84
2023/09/16 09:11:59;;;;;;;3.13;1.80;;;;;;;;;;12981118;22;20047;-84
2023/09/16 09:17:02;;;;;;;3.08;2.17;;;;;;;;;;12963724;22;20138;-84
2023/09/16 09:22:07;;;;;;;2.00;1.80;;;;;;;;;;12967730;22;20058;-84
2023/09/16 09:27:11;;;;;;;1.70;1.60;;;;;;;;;;12967902;22;20085;-84
2023/09/16 09:32:14;;;;;;;2.08;1.73;;;;;;;;;;12964809;22;20087;-84
2023/09/16 09:37:19;;;;;;;1.40;1.30;;;;;;;;;;12974532;22;20031;-83
2023/09/16 09:42:22;;;;;;;1.45;1.35;;;;;;;;;;12964891;22;20028;-85
2023/09/16 09:47:26;;;;;;;2.30;2.10;;;;;;;;;;12965466;22;20024;-85
2023/09/16 09:52:31;;;;;;;2.33;1.90;;;;;;;;;;12967447;22;20086;-84
2023/09/16 09:57:35;;;;;;;3.15;2.63;;;;;;;;;;12967697;22;20027;-86
2023/09/16 10:02:40;;;;;;;2.95;2.30;;;;;;;;;;12981188;22;20024;-84
2023/09/16 10:07:45;;;;;;;2.53;1.90;;;;;;;;;;12967825;22;20537;-84
2023/09/16 10:12:51;;;;;;;3.58;2.58;;;;;;;;;;12965928;22;20030;-84
2023/09/16 10:17:54;;;;;;;;;;;;;;;;;;12964306;22;20020;-85
2023/09/16 10:23:00;;;;;;;2.78;2.55;;;;;;;;;;12966871;22;19926;-84
2023/09/16 10:28:05;;;;;;;3.15;2.60;;;;;;;;;;12964414;22;20107;-84
2023/09/16 10:33:10;;;;;;;3.00;2.70;;;;;;;;;;12965196;22;20107;-84
2023/09/16 10:38:15;;;;;;;2.10;1.95;;;;;;;;;;12964977;22;20708;-84
2023/09/16 10:43:19;;;;;;;2.23;2.07;;;;;;;;;;12990557;22;20051;-84
2023/09/16 10:48:23;;;;;;;2.03;1.83;;;;;;;;;;12964273;22;20281;-85
2023/09/16 10:53:36;;;;;;;1.95;1.73;;;;;;;;;;12967675;22;20102;-84
2023/09/16 10:58:46;;;;;;;3.42;2.17;;;;;;;;;;12963642;22;20039;-85
2023/09/16 11:03:55;;;;;;;2.35;2.03;;;;;;;;;;12966141;22;20024;-84
2023/09/16 11:09:01;;;;;;;2.10;1.88;;;;;;;;;;12972807;22;20518;-84
2023/09/16 11:14:05;;;;;;;2.55;1.83;;;;;;;;;;12966098;22;20619;-84
2023/09/16 11:19:09;;;;;;;2.10;1.65;;;;;;;;;;12975357;22;20108;-84
2023/09/16 11:24:14;;;;;;;1.90;1.73;;;;;;;;;;12970835;22;20852;-85
2023/09/16 11:29:18;;;;;;;3.08;2.20;;;;;;;;;;12965465;22;20412;-84
2023/09/16 11:34:23;;;;;;;2.35;1.75;;;;;;;;;;12968209;22;20078;-85
2023/09/16 11:39:36;;;;;;;2.53;1.73;;;;;;;;;;12965590;22;20011;-85
2023/09/16 11:44:40;;;;;;;2.45;1.90;;;;;;;;;;12972678;22;20112;-85
2023/09/16 11:49:43;;;;;;;2.08;1.88;;;;;;;;;;12967713;22;20016;-85
2023/09/16 11:54:48;;;;;;;3.00;2.10;;;;;;;;;;12968324;22;20054;-84
2023/09/16 11:59:51;;;;;;;1.92;1.83;;;;;;;;;;12969215;22;20039;-84
2023/09/16 12:04:55;;;;;;;2.55;1.50;;;;;;;;;;12967617;22;20051;-85
2023/09/16 12:10:01;;;;;;;2.22;1.85;;;;;;;;;;12967158;22;20024;-84
2023/09/16 12:15:05;;;;;;;3.08;1.73;;;;;;;;;;12991430;22;20023;-84
2023/09/16 12:20:11;;;;;;;1.70;1.50;;;;;;;;;;12966604;22;20104;-84
2023/09/16 12:25:16;;;;;;;2.05;1.52;;;;;;;;;;12969669;22;20016;-85
2023/09/16 12:30:19;;;;;;;1.63;1.50;;;;;;;;;;12971901;22;20034;-84
2023/09/16 12:35:23;;;;;;;2.47;1.55;;;;;;;;;;12974861;22;20031;-85
2023/09/16 12:40:27;;;;;;;2.15;1.70;;;;;;;;;;12973390;22;20394;-84
2023/09/16 12:45:34;;;;;;;1.60;1.50;;;;;;;;;;12971753;22;20026;-85
2023/09/16 12:50:38;;;;;;;1.58;1.48;;;;;;;;;;12992270;22;20085;-85
2023/09/16 12:55:42;;;;;;;1.95;1.75;;;;;;;;;;12970300;22;20016;-85
2023/09/16 13:00:46;;;;;;;1.92;1.70;;;;;;;;;;12972828;22;20073;-85
2023/09/16 13:05:55;;;;;;;1.63;1.52;;;;;;;;;;12966950;22;20027;-85
2023/09/16 13:11:01;;;;;;;1.30;1.20;;;;;;;;;;12971848;22;20043;-85
2023/09/16 13:16:04;;;;;;;1.67;1.50;;;;;;;;;;12973015;22;20047;-84
2023/09/16 13:21:08;;;;;;;1.63;1.52;;;;;;;;;;12977317;22;20083;-85
2023/09/16 13:26:13;;;;;;;2.67;1.10;;;;;;;;;;12970940;22;20023;-85
2023/09/16 13:31:22;;;;;;;1.85;1.30;;;;;;;;;;12998035;22;20054;-85
2023/09/16 13:36:27;;;;;;;2.00;1.67;;;;;;;;;;12970084;22;20074;-85
2023/09/16 13:41:32;;;;;;;3.28;1.70;;;;;;;;;;12937968;22;20020;-75
2023/09/16 13:46:35;;;;;;;;;;;;;;;;;;12937821;22;20023;-75
2023/09/16 13:51:39;;;;;;;1.52;1.42;;;;;;;;;;13000824;22;19915;-76
2023/09/16 13:56:43;;;;;;;1.60;1.50;;;;;;;;;;13003713;22;20381;-75
2023/09/16 14:01:47;;;;;;;1.77;1.63;;;;;;;;;;13002531;22;20016;-75
2023/09/16 14:06:50;;;;;;;1.15;1.05;;;;;;;;;;12958775;22;20446;-75
2023/09/16 14:11:55;;;;;;;2.50;2.05;;;;;;;;;;13000094;22;20023;-75
2023/09/16 14:16:59;;;;;;;1.88;1.70;;;;;;;;;;12983098;22;20077;-75
2023/09/16 14:22:02;;;;;;;1.40;1.30;;;;;;;;;;12996014;22;20320;-75
2023/09/16 14:27:07;;;;;;;1.50;1.25;;;;;;;;;;12995409;22;20409;-75
2023/09/16 14:32:11;;;;;;;1.70;1.20;;;;;;;;;;12993121;22;20031;-75
2023/09/16 14:37:15;;;;;;;1.20;1.10;;;;;;;;;;12994197;22;20487;-75
2023/09/16 14:42:19;;;;;;;1.50;1.40;;;;;;;;;;12992187;22;20028;-75
2023/09/16 14:47:23;;;;;;;2.83;1.80;;;;;;;;;;12980244;22;20074;-75
2023/09/16 14:52:27;;;;;;;1.98;1.75;;;;;;;;;;12951908;22;20454;-75
2023/09/16 14:57:31;;;;;;;1.90;1.67;;;;;;;;;;12978287;22;20024;-75
2023/09/16 15:02:35;;;;;;;1.67;1.58;;;;;;;;;;12951913;22;20024;-75
2023/09/16 15:07:39;;;;;;;2.05;1.38;;;;;;;;;;12991134;22;20024;-75
2023/09/16 15:12:44;;;;;;;1.60;1.50;;;;;;;;;;12979863;22;20026;-75
2023/09/16 15:17:47;;;;;;;1.92;1.35;;;;;;;;;;12952819;22;20372;-75
2023/09/16 15:22:50;;;;;;;1.27;1.15;;;;;;;;;;12971802;22;20378;-75
2023/09/16 15:27:55;;;;;;;1.38;1.13;;;;;;;;;;12988834;22;20069;-75
2023/09/16 15:32:58;;;;;;;1.53;1.20;;;;;;;;;;12983437;22;20091;-75
2023/09/16 15:38:03;;;;;;;1.98;1.70;;;;;;;;;;12986792;22;20024;-75
2023/09/16 15:43:07;;;;;;;1.97;1.63;;;;;;;;;;12977488;22;20028;-75
2023/09/16 15:48:11;;;;;;;1.73;1.45;;;;;;;;;;12948065;22;20022;-75
2023/09/16 15:53:14;;;;;;;1.83;1.60;;;;;;;;;;12974271;22;20493;-75
2023/09/16 15:58:19;;;;;;;2.75;1.40;;;;;;;;;;12981340;22;20030;-75
2023/09/16 16:03:24;;;;;;;1.70;1.45;;;;;;;;;;12970297;22;20418;-76
2023/09/16 16:08:28;;;;;;;3.83;1.67;;;;;;;;;;12978634;22;20027;-75
2023/09/16 16:13:32;;;;;;;2.30;1.48;;;;;;;;;;12985444;22;20020;-75
2023/09/16 16:18:36;;;;;;;1.37;1.27;;;;;;;;;;12978835;22;20091;-75
2023/09/16 16:23:40;;;;;;;3.25;2.33;;;;;;;;;;12994130;22;20030;-75
2023/09/16 16:28:44;;;;;;;2.38;2.10;;;;;;;;;;12977098;22;20026;-75
2023/09/16 16:33:47;;;;;;;2.60;2.23;;;;;;;;;;12996813;22;20462;-75
2023/09/16 16:38:51;;;;;;;2.08;1.60;;;;;;;;;;12995705;22;20349;-75
2023/09/16 16:43:55;;;;;;;3.53;1.50;;;;;;;;;;12996984;22;20043;-75
2023/09/16 16:48:59;;;;;;;1.70;1.60;;;;;;;;;;12979271;22;20099;-75
2023/09/16 16:54:03;;;;;;;1.88;1.60;;;;;;;;;;12979842;22;20027;-75
2023/09/16 16:59:08;;;;;;;2.25;1.90;;;;;;;;;;12979387;22;20027;-75
2023/09/16 17:04:11;;;;;;;1.60;1.50;;;;;;;;;;12995882;22;20099;-75
2023/09/16 17:09:16;;;;;;;1.95;1.77;;;;;;;;;;12978567;22;20146;-75
2023/09/16 17:14:24;;;;;;;2.55;1.85;;;;;;;;;;12947581;22;20036;-77
2023/09/16 17:26:24;;;;;;;3.10;2.10;;;;;;;;;;12918966;22;20358;-78
2023/09/16 17:31:29;;;;;;;2.00;1.45;;;;;;;;;;12985651;22;20535;-79
2023/09/16 17:36:32;;;;;;;2.57;1.60;;;;;;;;;;12984154;22;20030;-75
2023/09/16 17:41:37;;;;;;;2.40;1.98;;;;;;;;;;12976856;22;20107;-75
2023/09/16 17:46:41;;;;;;;2.08;1.67;;;;;;;;;;12949445;22;20103;-76
2023/09/16 17:51:46;;;;;;;2.90;1.70;;;;;;;;;;12977097;22;20024;-76
2023/09/16 17:56:49;;;;;;;1.73;1.63;;;;;;;;;;12981798;22;20066;-76
2023/09/16 18:01:54;;;;;;;2.05;1.80;;;;;;;;;;12982203;22;20037;-76
2023/09/16 18:06:57;;;;;;;2.17;1.47;;;;;;;;;;12985403;22;20484;-76
2023/09/16 18:12:00;;;;;;;2.42;2.00;;;;;;;;;;12989951;22;20032;-76
2023/09/16 18:17:05;;;;;;;1.98;1.83;;;;;;;;;;12986756;22;20051;-76
2023/09/16 18:22:09;;;;;;;2.38;1.83;;;;;;;;;;12983294;22;20098;-76
2023/09/16 18:27:13;;;;;;;1.63;1.52;;;;;;;;;;12977430;22;20078;-76
2023/09/16 18:32:17;;;;;;;1.77;1.67;;;;;;;;;;12982551;22;20047;-76
2023/09/16 18:37:21;;;;;;;2.35;2.00;;;;;;;;;;12980236;22;20070;-76
2023/09/16 18:42:24;;;;;;;2.88;1.88;;;;;;;;;;12980887;22;20028;-76
2023/09/16 18:47:29;;;;;;;2.58;2.20;;;;;;;;;;12978974;22;20118;-76
2023/09/16 18:52:32;;;;;;;4.35;1.88;;;;;;;;;;12952712;22;20043;-76
2023/09/16 18:57:36;;;;;;;3.67;1.80;;;;;;;;;;12980751;22;20073;-76
2023/09/16 19:02:40;;;;;;;3.67;2.25;;;;;;;;;;12979970;22;20024;-76
2023/09/16 19:14:12;;;;;;;2.17;1.77;;;;;;;;;;12903464;23;20032;-76
2023/09/16 19:19:27;;;;;;;2.80;1.88;;;;;;;;;;12940868;22;20019;-77
2023/09/16 19:24:48;;;;;;;2.08;1.88;;;;;;;;;;12952247;22;20030;-77
2023/09/16 19:29:52;;;;;;;2.15;1.88;;;;;;;;;;12978245;22;20024;-76
2023/09/16 19:34:58;;;;;;;2.10;1.98;;;;;;;;;;12992545;22;20027;-77
2023/09/16 19:40:01;;;;;;;1.67;1.58;;;;;;;;;;12990651;22;20525;-77
2023/09/16 19:45:08;;;;;;;2.92;1.50;;;;;;;;;;12987319;22;20467;-76
2023/09/16 19:50:23;;;;;;;2.45;1.80;;;;;;;;;;12952010;22;20023;-77
2023/09/16 19:55:26;;;;;;;2.50;2.17;;;;;;;;;;12951108;22;20034;-77
2023/09/16 20:00:32;;;;;;;1.90;1.70;;;;;;;;;;12950662;22;20499;-77
2023/09/16 20:05:41;;;;;;;2.03;1.75;;;;;;;;;;12951760;22;20043;-77
2023/09/16 20:10:44;;;;;;;2.40;1.98;;;;;;;;;;12949339;22;20185;-78
2023/09/16 20:15:48;;;;;;;2.10;1.80;;;;;;;;;;12989964;22;20028;-77
2023/09/16 20:20:58;;;;;;;2.53;1.75;;;;;;;;;;12978739;22;20028;-76
2023/09/16 20:26:06;;;;;;;1.92;1.77;;;;;;;;;;12985741;22;20035;-76
2023/09/16 20:31:13;;;;;;;3.72;1.63;;;;;;;;;;12982508;22;20490;-77
2023/09/16 20:36:18;;;;;;;2.05;1.85;;;;;;;;;;12976762;22;20363;-77
2023/09/16 20:41:22;;;;;;;1.90;1.70;;;;;;;;;;12983287;22;20051;-77
2023/09/16 20:46:58;;;;;;;2.15;1.98;;;;;;;;;;12983943;22;20473;-77
2023/09/16 20:52:46;;;;;;;2.83;1.65;;;;;;;;;;12775963;23;20021;-76
2023/09/16 20:57:52;;;;;;;3.60;1.70;;;;;;;;;;12757361;23;20024;-77
2023/09/16 21:02:55;;;;;;;3.08;1.42;;;;;;;;;;12754290;23;20025;-77
2023/09/16 21:08:00;;;;;;;1.85;1.75;;;;;;;;;;12756636;23;20456;-77
2023/09/16 21:13:04;;;;;;;1.93;1.63;;;;;;;;;;12779927;23;20039;-77
2023/09/16 21:18:28;;;;;;;2.35;1.77;;;;;;;;;;12767884;23;20723;-78
2023/09/16 21:23:58;;;;;;;1.70;1.60;;;;;;;;;;12798583;23;20025;-77
2023/09/16 21:29:06;;;;;;;3.00;2.00;;;;;;;;;;12895540;22;20023;-77
2023/09/16 21:34:18;;;;;;;4.18;1.83;;;;;;;;;;12994439;22;20032;-77
2023/09/16 21:39:36;;;;;;;2.22;2.03;;;;;;;;;;12953366;22;20466;-77
2023/09/16 21:44:43;;;;;;;2.05;1.85;;;;;;;;;;12983632;22;20019;-77
2023/09/16 21:49:49;;;;;;;2.55;1.77;;;;;;;;;;12954991;22;20078;-77
2023/09/16 21:54:54;;;;;;;2.28;1.73;;;;;;;;;;12995659;22;20019;-77
2023/09/16 22:00:24;;;;;;;2.65;1.90;;;;;;;;;;12953909;22;20028;-77
2023/09/16 22:05:39;;;;;;;1.83;1.73;;;;;;;;;;12937880;22;20024;-77
2023/09/16 22:10:48;;;;;;;2.30;2.10;;;;;;;;;;12990806;22;20034;-77
2023/09/16 22:15:55;;;;;;;2.80;2.50;;;;;;;;;;12981268;22;20358;-77
2023/09/16 22:20:59;;;;;;;6.07;2.50;;;;;;;;;;12997872;22;20086;-77
2023/09/16 22:26:09;;;;;;;3.20;2.33;;;;;;;;;;12988179;22;20447;-77
2023/09/16 22:31:15;;;;;;;3.90;2.35;;;;;;;;;;12995107;22;20390;-77
2023/09/16 22:42:15;;;;;;;;;;;;;;;;;;12939598;22;20470;-77
2023/09/16 22:47:19;;;;;;;1.77;1.67;;;;;;;;;;12954562;22;20226;-76
2023/09/16 22:52:26;;;;;;;1.80;1.65;;;;;;;;;;12952569;22;20024;-76
2023/09/16 22:57:32;;;;;;;2.63;2.08;;;;;;;;;;12982542;22;20016;-76
2023/09/16 23:02:46;;;;;;;2.75;1.77;;;;;;;;;;12952728;22;20340;-77
2023/09/16 23:14:17;;;;;;;2.28;1.75;;;;;;;;;;12950981;22;20308;-77
2023/09/16 23:19:21;;;;;;;2.45;1.90;;;;;;;;;;12994899;22;20027;-76
2023/09/16 23:24:44;;;;;;;1.98;1.85;;;;;;;;;;12952631;22;20015;-76
2023/09/16 23:30:22;;;;;;;3.05;1.85;;;;;;;;;;12991358;22;20656;-76
2023/09/16 23:42:56;;;;;;;2.00;1.77;;;;;;;;;;12684704;22;20464;-77
2023/09/16 23:48:27;;;;;;;3.00;2.13;;;;;;;;;;12902618;22;20019;-78
